Time;durP1;ratioP1;P1;durP2;ratioP2;P2;SDS_P1;SDS_P2;PMS_P1;PMS_P2;Temp;Humidity;BMP_temperature;BMP_pressure;BME280_temperature;BME280_humidity;BME280_pressure;Samples;Min_cycle;Max_cycle;Signal;HPM_P1;HPM_P2
2022/08/12 00:42:53;;;;;;;9.45;6.70;;;18.00;1.00;;;;;;5053296;28;20147;-26
2022/08/12 00:45:19;;;;;;;8.93;6.05;;;18.00;1.00;;;;;;5053949;28;20045;-26
2022/08/12 00:47:45;;;;;;;8.13;6.60;;;18.00;1.00;;;;;;5053075;28;20120;-26
2022/08/12 00:50:17;;;;;;;8.40;6.00;;;18.00;99.90;;;;;;5052032;28;20045;-26
2022/08/12 00:52:48;;;;;;;10.43;7.00;;;18.00;99.90;;;;;;5053759;28;20037;-26
2022/08/12 00:55:16;;;;;;;11.00;6.22;;;18.00;99.90;;;;;;5053997;28;20508;-26
2022/08/12 00:57:46;;;;;;;10.93;6.18;;;18.00;99.90;;;;;;5051520;28;20049;-26
2022/08/12 01:00:23;;;;;;;8.00;6.20;;;18.00;99.90;;;;;;5035868;28;20052;-26
2022/08/12 01:02:54;;;;;;;10.50;6.55;;;18.00;1.00;;;;;;5051749;28;20364;-26
2022/08/12 01:11:27;;;;;;;7.50;6.65;;;17.90;99.90;;;;;;5054269;28;20057;-26
2022/08/12 01:11:30;;;;;;;8.85;6.15;;;17.90;99.90;;;;;;5053514;28;20056;-25
2022/08/12 01:13:58;;;;;;;9.73;7.10;;;17.90;99.90;;;;;;5052232;28;20049;-26
2022/08/12 01:16:25;;;;;;;9.93;6.57;;;17.90;99.90;;;;;;5051222;28;20487;-26
2022/08/12 01:18:54;;;;;;;7.60;6.80;;;17.90;99.90;;;;;;5052879;28;20049;-26
2022/08/12 01:22:01;;;;;;;9.45;6.43;;;17.90;99.90;;;;;;5051903;28;20044;-26
2022/08/12 01:24:46;;;;;;;9.40;7.25;;;17.80;1.00;;;;;;5057454;28;20128;-26
2022/08/12 01:27:14;;;;;;;9.73;7.30;;;17.80;1.00;;;;;;5055926;28;20036;-26
2022/08/12 01:29:45;;;;;;;10.70;6.57;;;17.80;1.00;;;;;;5056544;28;20059;-25
2022/08/12 01:32:15;;;;;;;9.82;6.85;;;17.80;1.00;;;;;;5054653;28;20449;-26
2022/08/12 01:35:11;;;;;;;10.18;7.18;;;17.80;1.00;;;;;;5054381;28;20053;-26
2022/08/12 01:37:55;;;;;;;8.43;6.53;;;17.80;1.00;;;;;;5050483;28;20057;-26
2022/08/12 01:40:27;;;;;;;8.68;6.65;;;17.70;1.00;;;;;;5056497;28;20041;-25
2022/08/12 01:42:57;;;;;;;7.30;6.60;;;17.70;1.00;;;;;;5055382;28;20044;-26
2022/08/12 01:45:25;;;;;;;10.85;7.63;;;17.70;1.00;;;;;;5055268;28;20114;-26
2022/08/12 01:48:08;;;;;;;11.05;7.55;;;17.70;1.00;;;;;;5055004;28;20055;-26
2022/08/12 01:50:55;;;;;;;10.27;7.57;;;17.70;1.00;;;;;;5056601;28;20080;-26
2022/08/12 01:53:24;;;;;;;11.48;7.32;;;17.60;1.00;;;;;;5053360;28;20041;-26
2022/08/12 01:55:51;;;;;;;10.57;6.80;;;17.60;1.00;;;;;;5054590;28;20486;-26
2022/08/12 02:01:29;;;;;;;11.90;7.80;;;17.50;7.30;;;;;;5056096;28;20478;-27
2022/08/12 02:13:22;;;;;;;11.95;8.57;;;17.00;66.20;;;;;;5055862;28;20103;-26
2022/08/12 02:15:57;;;;;;;12.57;9.00;;;16.40;1.00;;;;;;5054578;28;20096;-26
2022/08/12 02:18:44;;;;;;;11.00;9.68;;;16.10;1.00;;;;;;5055614;28;20057;-26
2022/08/12 02:21:23;;;;;;;15.60;10.20;;;15.80;1.00;;;;;;5054670;28;20053;-26
2022/08/12 02:23:49;;;;;;;11.88;9.38;;;15.50;27.80;;;;;;5041918;28;20454;-27
2022/08/12 02:26:17;;;;;;;11.63;8.57;;;15.30;42.30;;;;;;5055415;28;20045;-26
2022/08/12 02:28:44;;;;;;;14.75;10.25;;;15.20;99.90;;;;;;5055788;28;20380;-26
2022/08/12 02:31:11;;;;;;;13.93;10.43;;;15.10;99.90;;;;;;5055428;28;20103;-26
2022/08/12 02:33:38;;;;;;;17.30;10.63;;;15.10;99.90;;;;;;5053538;28;20068;-26
2022/08/12 02:36:04;;;;;;;18.45;11.65;;;15.00;99.90;;;;;;5055714;28;20036;-26
2022/08/12 02:38:31;;;;;;;15.20;11.80;;;15.00;99.90;;;;;;5054933;28;20076;-26
2022/08/12 02:41:00;;;;;;;15.05;11.20;;;15.10;99.90;;;;;;5055382;28;20261;-25
2022/08/12 02:43:44;;;;;;;16.48;12.65;;;15.10;1.00;;;;;;5056237;28;20486;-26
2022/08/12 02:46:12;;;;;;;17.15;12.63;;;15.20;91.40;;;;;;5056261;28;20077;-26
2022/08/12 02:48:50;;;;;;;22.80;13.85;;;15.30;1.00;;;;;;5055647;28;20044;-26
2022/08/12 02:51:19;;;;;;;17.27;13.05;;;15.30;45.90;;;;;;5054402;28;20053;-26
2022/08/12 02:53:47;;;;;;;20.48;14.35;;;15.40;99.90;;;;;;5054396;28;20056;-26
2022/08/12 02:56:16;;;;;;;21.73;13.65;;;15.50;99.90;;;;;;5055909;28;20119;-26
2022/08/12 02:58:45;;;;;;;19.17;14.77;;;15.60;99.90;;;;;;5054926;28;20052;-27
2022/08/12 03:01:12;;;;;;;17.83;13.80;;;15.70;99.90;;;;;;5055925;28;20052;-26
2022/08/12 03:03:40;;;;;;;15.30;13.23;;;15.90;99.90;;;;;;5037095;28;20125;-26
2022/08/12 03:06:15;;;;;;;15.25;13.55;;;15.80;99.90;;;;;;5054919;28;20041;-26
2022/08/12 03:08:45;;;;;;;15.88;13.60;;;15.90;99.90;;;;;;5054826;28;20041;-26
2022/08/12 03:11:40;;;;;;;14.38;11.73;;;15.90;99.90;;;;;;5035764;28;20103;-26
2022/08/12 03:14:12;;;;;;;13.98;11.75;;;16.00;1.00;;;;;;5035114;28;20045;-26
2022/08/12 03:16:39;;;;;;;16.92;13.18;;;16.10;1.00;;;;;;5036586;28;20037;-27
2022/08/12 03:19:06;;;;;;;13.65;11.00;;;16.00;1.00;;;;;;5053610;28;20118;-26
2022/08/12 03:21:36;;;;;;;17.13;11.38;;;16.10;99.90;;;;;;5053940;28;20048;-26
2022/08/12 03:24:04;;;;;;;17.95;11.40;;;16.10;99.90;;;;;;5054924;28;20483;-26
2022/08/12 03:26:34;;;;;;;16.27;11.10;;;16.10;99.90;;;;;;5053746;28;20045;-26
2022/08/12 03:29:05;;;;;;;12.18;10.93;;;16.20;99.90;;;;;;5053571;28;20518;-26
2022/08/12 03:31:32;;;;;;;17.63;11.48;;;16.10;99.90;;;;;;5053716;28;20045;-26
2022/08/12 03:34:11;;;;;;;13.07;11.30;;;16.20;99.90;;;;;;5054319;28;20086;-26
2022/08/12 03:36:40;;;;;;;22.40;12.93;;;16.10;99.90;;;;;;5054209;28;20048;-27
2022/08/12 03:42:05;;;;;;;16.58;12.32;;;16.10;99.90;;;;;;5055989;28;20055;-26
2022/08/12 04:01:24;;;;;;;15.27;13.13;;;15.80;99.90;;;;;;5053860;28;20052;-25
2022/08/12 04:03:51;;;;;;;15.10;13.15;;;15.70;99.90;;;;;;5054002;28;20467;-26
2022/08/12 04:06:23;;;;;;;19.13;13.02;;;15.70;99.90;;;;;;5053686;28;20052;-26
2022/08/12 04:08:51;;;;;;;17.05;14.00;;;15.70;99.90;;;;;;5053959;28;20048;-26
2022/08/12 04:14:13;;;;;;;16.27;12.55;;;15.70;99.90;;;;;;5054106;28;20461;-26
2022/08/12 04:16:39;;;;;;;16.92;12.63;;;15.70;99.90;;;;;;5053537;28;21204;-26
2022/08/12 04:19:06;;;;;;;19.77;12.52;;;15.60;99.90;;;;;;5053406;28;20537;-25
2022/08/12 04:21:33;;;;;;;17.55;12.27;;;15.70;99.90;;;;;;5051583;28;20115;-26
2022/08/12 04:23:59;;;;;;;19.27;12.20;;;15.60;99.90;;;;;;5054615;28;20045;-26
2022/08/12 04:26:26;;;;;;;19.95;13.63;;;15.60;99.90;;;;;;5053264;28;20391;-26
2022/08/12 04:28:55;;;;;;;18.73;13.73;;;15.60;99.90;;;;;;5053839;28;20510;-28
2022/08/12 04:31:41;;;;;;;17.55;12.35;;;15.60;99.90;;;;;;5053237;28;20394;-26
2022/08/12 04:34:08;;;;;;;17.10;11.43;;;15.60;1.00;;;;;;5068429;28;20075;-26
2022/08/12 04:36:36;;;;;;;15.00;11.70;;;15.60;1.00;;;;;;5053371;28;20434;-25
2022/08/12 04:39:04;;;;;;;16.25;12.48;;;15.70;1.00;;;;;;5051434;28;20037;-26
2022/08/12 04:41:30;;;;;;;14.90;11.82;;;15.70;1.00;;;;;;5052404;28;20043;-26
2022/08/12 04:43:56;;;;;;;15.88;12.43;;;15.70;1.00;;;;;;5052988;28;20102;-26
2022/08/12 04:46:25;;;;;;;16.10;9.98;;;15.70;1.00;;;;;;5053961;28;20123;-26
2022/08/12 04:48:52;;;;;;;16.73;10.80;;;15.70;1.00;;;;;;5052722;28;20079;-26
2022/08/12 04:51:20;;;;;;;18.70;11.27;;;15.80;1.00;;;;;;5053136;28;20048;-26
2022/08/12 04:53:47;;;;;;;22.50;10.43;;;15.90;1.00;;;;;;5052701;28;20049;-26
2022/08/12 04:56:14;;;;;;;16.88;10.50;;;15.90;1.00;;;;;;5052568;28;20516;-26
2022/08/12 04:58:41;;;;;;;12.23;10.20;;;16.00;1.00;;;;;;5053152;28;20084;-26
2022/08/12 05:01:07;;;;;;;12.77;10.38;;;16.10;1.00;;;;;;5051770;28;20049;-26
2022/08/12 05:03:40;;;;;;;14.73;10.15;;;16.20;1.00;;;;;;5035336;28;20078;-26
2022/08/12 05:06:06;;;;;;;14.63;9.40;;;16.20;1.00;;;;;;5033900;28;20056;-26
2022/08/12 05:08:32;;;;;;;15.00;9.48;;;16.30;99.90;;;;;;5049305;28;20498;-27
2022/08/12 05:10:58;;;;;;;14.48;9.32;;;16.40;99.90;;;;;;5052066;28;20049;-25
2022/08/12 05:13:38;;;;;;;11.93;8.68;;;16.40;99.90;;;;;;5053293;28;20052;-26
2022/08/12 05:16:06;;;;;;;11.77;8.50;;;16.40;99.90;;;;;;5051209;28;20388;-25
2022/08/12 05:18:37;;;;;;;12.25;8.30;;;16.50;99.90;;;;;;5052446;28;20447;-26
2022/08/12 05:21:04;;;;;;;10.25;8.35;;;16.60;99.90;;;;;;5052917;28;20048;-26
2022/08/12 05:23:31;;;;;;;13.43;8.02;;;16.60;99.90;;;;;;5053553;28;20462;-26
2022/08/12 05:25:57;;;;;;;12.15;8.32;;;16.70;99.90;;;;;;5050811;28;20056;-26
2022/08/12 05:28:25;;;;;;;14.77;8.00;;;16.80;92.00;;;;;;5052746;28;20110;-26
2022/08/12 05:30:51;;;;;;;13.52;7.22;;;16.90;43.20;;;;;;5050652;28;21150;-26
2022/08/12 05:33:17;;;;;;;9.48;7.00;;;17.00;1.00;;;;;;5051302;28;20093;-26
2022/08/12 05:35:44;;;;;;;12.02;7.18;;;17.10;1.00;;;;;;5051177;28;20124;-26
2022/08/12 05:40:57;;;;;;;15.18;6.35;;;17.20;1.00;;;;;;5050436;28;20068;-26
2022/08/12 05:43:23;;;;;;;9.52;6.70;;;17.30;99.90;;;;;;5052557;28;20041;-26
2022/08/12 05:45:50;;;;;;;8.70;6.55;;;17.30;99.90;;;;;;5052273;28;20056;-26
2022/08/12 05:48:16;;;;;;;9.80;6.57;;;17.40;99.90;;;;;;5053003;28;20131;-26
2022/08/12 05:50:44;;;;;;;7.30;5.85;;;17.50;99.90;;;;;;5052299;28;20057;-26
2022/08/12 05:53:10;;;;;;;12.63;6.20;;;17.50;99.90;;;;;;5051940;28;20045;-27
2022/08/12 05:55:36;;;;;;;9.50;5.90;;;17.60;99.90;;;;;;5052481;28;20041;-27
2022/08/12 05:58:04;;;;;;;8.88;6.07;;;17.70;99.90;;;;;;5050998;28;20045;-26
2022/08/12 06:00:31;;;;;;;8.65;5.18;;;17.90;99.90;;;;;;5053451;28;20368;-26
2022/08/12 06:03:00;;;;;;;10.63;5.70;;;18.00;99.90;;;;;;5051083;28;20056;-26
2022/08/12 06:05:34;;;;;;;8.52;6.15;;;18.00;99.90;;;;;;5051295;28;20072;-26
2022/08/12 06:08:04;;;;;;;9.05;5.38;;;18.20;99.90;;;;;;5052397;28;20095;-26
2022/08/12 06:10:33;;;;;;;6.40;4.63;;;18.20;99.90;;;;;;5055234;28;20065;-26
2022/08/12 06:13:01;;;;;;;8.40;5.07;;;18.40;99.90;;;;;;5055940;28;20045;-26
2022/08/12 06:15:28;;;;;;;7.80;4.45;;;18.50;99.90;;;;;;5037689;28;20049;-26
2022/08/12 06:18:04;;;;;;;6.53;5.22;;;18.60;11.90;;;;;;5055511;28;20087;-26
2022/08/12 06:20:30;;;;;;;5.93;4.90;;;18.70;1.00;;;;;;5057307;28;20106;-26
2022/08/12 06:22:56;;;;;;;8.82;5.00;;;18.80;1.00;;;;;;5054959;28;20049;-26
2022/08/12 06:25:22;;;;;;;7.90;4.32;;;18.90;99.90;;;;;;5055877;28;20048;-26
2022/08/12 06:27:48;;;;;;;8.15;4.75;;;19.00;99.90;;;;;;5053203;28;20045;-27
2022/08/12 06:30:15;;;;;;;10.07;4.18;;;19.00;99.90;;;;;;5055510;28;20040;-26
2022/08/12 06:32:42;;;;;;;7.13;4.32;;;19.10;99.90;;;;;;5054579;28;20049;-26
2022/08/12 06:35:09;;;;;;;6.25;3.65;;;19.20;99.90;;;;;;5056896;28;20052;-26
2022/08/12 06:37:46;;;;;;;5.63;4.35;;;19.30;99.90;;;;;;5054227;28;20410;-26
2022/08/12 06:40:12;;;;;;;8.32;4.50;;;19.40;24.70;;;;;;5049615;28;20480;-26
2022/08/12 06:42:50;;;;;;;5.07;3.90;;;19.50;1.00;;;;;;5043054;28;20441;-26
2022/08/12 06:45:20;;;;;;;10.60;4.07;;;19.60;1.00;;;;;;5055549;28;20064;-27
2022/08/12 06:47:47;;;;;;;9.25;3.78;;;19.70;1.00;;;;;;5056206;28;20052;-26
2022/08/12 06:50:17;;;;;;;7.57;4.50;;;19.80;1.00;;;;;;5055425;28;20099;-26
2022/08/12 06:52:44;;;;;;;6.63;3.53;;;19.90;99.90;;;;;;5055123;28;20479;-26
2022/08/12 06:55:19;;;;;;;10.15;3.50;;;20.00;99.90;;;;;;5055970;28;20080;-26
2022/08/12 06:57:53;;;;;;;8.07;3.40;;;20.20;99.90;;;;;;5056529;28;20059;-26
2022/08/12 07:00:25;;;;;;;8.18;3.17;;;20.30;99.90;;;;;;5055989;28;20041;-26
2022/08/12 07:02:54;;;;;;;6.00;3.30;;;20.40;99.90;;;;;;5055931;28;20049;-26
2022/08/12 07:05:24;;;;;;;7.60;3.10;;;20.50;99.90;;;;;;5054655;28;20045;-27
2022/08/12 07:08:16;;;;;;;8.57;4.10;;;20.60;99.90;;;;;;5048962;28;20056;-26
2022/08/12 07:10:44;;;;;;;5.20;3.50;;;20.80;99.90;;;;;;5034344;28;20093;-26
2022/08/12 07:13:10;;;;;;;7.25;3.60;;;20.90;99.90;;;;;;5035800;28;20072;-26
2022/08/12 07:15:37;;;;;;;9.50;3.45;;;21.00;99.90;;;;;;5041491;28;20135;-26
2022/08/12 07:18:10;;;;;;;5.43;3.50;;;21.10;99.90;;;;;;5049902;28;20118;-26
2022/08/12 07:20:39;;;;;;;7.35;3.20;;;21.20;99.90;;;;;;5055640;28;20045;-26
2022/08/12 07:23:05;;;;;;;4.00;3.33;;;21.30;99.90;;;;;;5056340;28;20044;-26
2022/08/12 07:25:35;;;;;;;7.40;3.00;;;21.50;81.70;;;;;;5055042;28;20406;-26
2022/08/12 07:28:07;;;;;;;8.43;3.30;;;21.60;40.90;;;;;;5054440;28;20091;-27
2022/08/12 07:30:36;;;;;;;4.63;2.65;;;21.70;1.00;;;;;;5051990;28;20044;-26
2022/08/12 07:33:03;;;;;;;9.23;2.67;;;21.80;1.00;;;;;;5055271;28;20079;-26
2022/08/12 07:35:33;;;;;;;7.15;2.80;;;22.00;1.00;;;;;;5054214;28;20522;-26
2022/08/12 07:38:00;;;;;;;5.30;2.63;;;22.10;1.00;;;;;;5055884;28;20045;-26
2022/08/12 07:40:28;;;;;;;4.57;1.80;;;22.30;99.90;;;;;;5053421;28;20084;-27
2022/08/12 07:42:55;;;;;;;4.35;2.10;;;22.40;99.90;;;;;;5054528;28;20044;-26
2022/08/12 07:45:20;;;;;;;8.65;2.13;;;22.50;99.90;;;;;;5053830;28;20049;-26
2022/08/12 07:47:47;;;;;;;4.90;2.25;;;22.60;99.90;;;;;;5053860;28;20052;-26
2022/08/12 07:50:15;;;;;;;6.78;2.20;;;22.70;99.90;;;;;;5055248;28;20060;-26
2022/08/12 07:52:45;;;;;;;6.03;2.42;;;22.80;99.90;;;;;;5053865;28;20049;-26
2022/08/12 07:55:13;;;;;;;6.75;2.40;;;22.90;99.90;;;;;;5052673;28;20089;-27
2022/08/12 07:57:56;;;;;;;8.20;3.15;;;23.00;99.90;;;;;;5054735;28;20060;-27
2022/08/12 08:00:23;;;;;;;4.63;2.28;;;23.20;99.90;;;;;;5053756;28;20088;-26
2022/08/12 08:02:53;;;;;;;3.70;2.08;;;23.30;6.10;;;;;;5054114;28;20049;-26
2022/08/12 08:05:22;;;;;;;3.65;2.60;;;23.40;1.00;;;;;;5053676;28;20114;-26
2022/08/12 08:07:49;;;;;;;5.55;2.08;;;23.50;1.00;;;;;;5053247;28;20049;-26
2022/08/12 08:10:15;;;;;;;4.68;1.85;;;23.60;1.00;;;;;;5054607;28;20045;-26
2022/08/12 08:12:54;;;;;;;5.15;2.05;;;23.80;1.00;;;;;;5053393;28;20045;-26
2022/08/12 08:15:33;;;;;;;5.13;2.00;;;23.80;99.90;;;;;;5053451;28;20092;-26
2022/08/12 08:18:01;;;;;;;3.20;2.25;;;24.00;99.90;;;;;;5053069;28;20060;-26
2022/08/12 08:20:38;;;;;;;6.65;2.25;;;24.10;99.90;;;;;;5052845;28;20049;-26
2022/08/12 08:23:08;;;;;;;7.85;2.80;;;24.20;99.90;;;;;;5054163;28;20533;-27
2022/08/12 08:25:37;;;;;;;6.15;2.53;;;24.30;99.90;;;;;;5053614;28;20045;-27
2022/08/12 08:28:07;;;;;;;4.20;2.22;;;24.50;99.90;;;;;;5054280;28;20056;-27
2022/08/12 08:30:34;;;;;;;7.80;2.60;;;24.60;99.90;;;;;;5051453;28;20527;-26
2022/08/12 08:33:00;;;;;;;6.47;2.03;;;24.70;99.90;;;;;;5053384;28;20060;-27
2022/08/12 08:35:26;;;;;;;3.83;1.98;;;24.80;99.90;;;;;;5054084;28;20049;-26
2022/08/12 08:37:51;;;;;;;4.72;1.98;;;25.00;99.90;;;;;;5036513;28;20052;-26
2022/08/12 08:43:03;;;;;;;4.63;2.00;;;25.30;1.00;;;;;;5054665;28;20399;-26
2022/08/12 08:45:29;;;;;;;10.07;2.45;;;25.40;1.00;;;;;;5053992;28;20041;-26
2022/08/12 08:47:55;;;;;;;3.92;2.10;;;25.50;1.00;;;;;;5054032;28;20056;-27
2022/08/12 08:50:22;;;;;;;5.63;2.40;;;25.60;5.60;;;;;;5052826;28;20049;-29
2022/08/12 08:52:47;;;;;;;4.90;2.35;;;25.70;1.00;;;;;;5053569;28;20049;-27
2022/08/12 08:55:15;;;;;;;5.80;2.35;;;25.80;1.00;;;;;;5053768;28;20509;-27
2022/08/12 08:57:51;;;;;;;7.38;2.85;;;26.00;1.00;;;;;;5053768;28;20491;-26
2022/08/12 09:00:19;;;;;;;10.10;2.28;;;26.10;1.00;;;;;;5052804;28;20045;-26
2022/08/12 09:02:46;;;;;;;4.65;1.85;;;26.20;99.90;;;;;;5053774;28;20053;-26
2022/08/12 09:05:12;;;;;;;5.35;1.90;;;26.30;99.90;;;;;;5034454;28;20052;-27
2022/08/12 09:07:46;;;;;;;6.63;5.07;;;26.60;99.90;;;;;;5052628;28;20049;-26
2022/08/12 09:10:15;;;;;;;5.95;2.17;;;27.60;99.90;;;;;;5054252;28;20119;-27
2022/08/12 09:15:28;;;;;;;4.60;2.55;;;29.50;99.90;;;;;;5033493;28;20136;-26
2022/08/12 09:17:55;;;;;;;8.52;1.90;;;30.20;99.90;;;;;;5033830;28;20053;-27
2022/08/12 09:20:27;;;;;;;9.43;1.75;;;30.60;99.90;;;;;;5047988;28;20057;-27
2022/08/12 09:22:55;;;;;;;5.05;1.75;;;31.10;99.90;;;;;;5053590;28;20045;-27
2022/08/12 09:25:24;;;;;;;4.07;1.75;;;31.40;99.90;;;;;;5054324;28;20148;-27
2022/08/12 09:27:52;;;;;;;4.75;2.00;;;31.70;99.90;;;;;;5052514;28;20053;-27
2022/08/12 09:30:17;;;;;;;2.03;1.40;;;31.90;99.90;;;;;;5051730;28;20056;-27
2022/08/12 09:32:49;;;;;;;5.93;2.00;;;32.00;99.90;;;;;;5052149;28;20079;-27
2022/08/12 09:35:16;;;;;;;;;;;32.10;99.90;;;;;;5053780;28;20132;-27
2022/08/12 09:37:41;;;;;;;7.00;1.90;;;32.30;99.90;;;;;;5052441;28;20363;-27
2022/08/12 09:40:08;;;;;;;4.63;1.80;;;32.30;99.90;;;;;;5047274;28;20045;-27
2022/08/12 09:45:21;;;;;;;5.57;1.75;;;32.60;99.90;;;;;;5051468;28;20049;-27
2022/08/12 09:47:51;;;;;;;9.20;1.67;;;32.70;99.90;;;;;;5057302;28;20049;-27
2022/08/12 09:50:18;;;;;;;3.75;1.60;;;33.00;99.90;;;;;;5053756;28;20049;-28
2022/08/12 09:52:45;;;;;;;5.38;1.95;;;33.10;99.90;;;;;;5055136;28;20505;-27
2022/08/12 09:55:11;;;;;;;6.05;1.85;;;33.50;99.90;;;;;;5056069;28;20053;-27
2022/08/12 09:57:37;;;;;;;7.90;2.08;;;33.70;99.90;;;;;;5054144;28;20078;-27
2022/08/12 10:00:10;;;;;;;4.47;1.90;;;34.10;99.90;;;;;;5048362;28;20041;-28
2022/08/12 10:02:37;;;;;;;9.07;1.65;;;34.30;99.90;;;;;;5045496;28;20048;-27
2022/08/12 10:05:08;;;;;;;8.07;1.48;;;34.20;99.90;;;;;;5040124;28;20067;-28
2022/08/12 10:07:34;;;;;;;5.83;1.73;;;34.40;99.90;;;;;;5041356;28;20530;-27
2022/08/12 10:09:59;;;;;;;6.35;1.83;;;34.40;99.90;;;;;;5057751;28;20371;-27
2022/08/12 10:15:25;;;;;;;5.93;2.17;;;34.50;99.90;;;;;;5033697;28;20060;-27
2022/08/12 10:17:52;;;;;;;9.75;2.17;;;34.60;99.90;;;;;;5053885;28;20076;-27
2022/08/12 10:20:17;;;;;;;3.30;1.60;;;34.60;99.90;;;;;;5055871;28;20123;-28
2022/08/12 10:22:56;;;;;;;4.80;1.70;;;35.00;99.90;;;;;;5056595;28;20494;-27
2022/08/12 10:30:51;;;;;;;5.55;1.63;;;35.40;99.90;;;;;;5056073;28;20190;-28
2022/08/12 10:33:17;;;;;;;6.07;1.58;;;35.50;99.90;;;;;;5055455;28;20102;-28
2022/08/12 10:35:43;;;;;;;7.07;1.80;;;35.50;99.90;;;;;;5056378;28;20131;-28
2022/08/12 10:38:09;;;;;;;6.10;1.42;;;35.60;99.90;;;;;;5056451;28;20041;-27
2022/08/12 10:43:39;;;;;;;8.48;1.45;;;35.60;99.90;;;;;;5056351;28;20502;-27
2022/08/12 10:46:06;;;;;;;9.02;1.52;;;35.80;99.90;;;;;;5056291;28;20045;-27
2022/08/12 10:48:32;;;;;;;6.22;1.95;;;36.10;99.90;;;;;;5051628;28;20546;-28
2022/08/12 10:50:58;;;;;;;5.53;1.98;;;36.40;99.90;;;;;;5056092;28;20171;-29
2022/08/12 10:53:25;;;;;;;6.07;1.40;;;36.00;99.90;;;;;;5049702;28;20041;-28
2022/08/12 10:55:53;;;;;;;2.45;1.35;;;35.80;99.90;;;;;;5043122;28;20461;-27
2022/08/12 10:58:19;;;;;;;3.63;1.52;;;35.70;99.90;;;;;;5056040;28;20045;-28
2022/08/12 11:00:44;;;;;;;5.85;1.67;;;35.70;99.90;;;;;;5038445;28;20045;-28
2022/08/12 11:03:10;;;;;;;4.47;1.40;;;35.80;99.90;;;;;;5055735;28;20136;-29
2022/08/12 11:05:36;;;;;;;1.95;1.40;;;35.90;99.90;;;;;;5055304;28;20119;-27
2022/08/12 11:08:02;;;;;;;5.68;1.70;;;36.00;99.90;;;;;;5038041;28;20171;-27
2022/08/12 11:10:28;;;;;;;5.50;1.75;;;36.10;99.90;;;;;;5056370;28;20131;-27
2022/08/12 11:12:55;;;;;;;3.03;1.20;;;36.00;99.90;;;;;;5055796;28;20080;-28
2022/08/12 11:15:22;;;;;;;3.83;1.42;;;36.20;99.90;;;;;;5056191;28;20061;-28
2022/08/12 11:17:49;;;;;;;4.07;1.20;;;36.10;99.90;;;;;;5055621;28;20475;-28
2022/08/12 11:20:14;;;;;;;5.07;1.40;;;36.30;99.90;;;;;;5054398;28;20560;-29
2022/08/12 11:22:40;;;;;;;3.55;1.52;;;36.30;99.90;;;;;;5053004;28;20049;-28
2022/08/12 11:25:09;;;;;;;2.83;1.33;;;36.20;99.90;;;;;;5053895;28;20045;-28
2022/08/12 11:27:35;;;;;;;3.58;1.35;;;36.10;99.90;;;;;;5055379;28;20041;-27
2022/08/12 11:30:01;;;;;;;1.52;1.38;;;36.00;99.90;;;;;;5055194;28;20060;-27
2022/08/12 11:32:26;;;;;;;5.93;1.73;;;35.90;99.90;;;;;;5052614;28;20120;-28
2022/08/12 11:34:52;;;;;;;4.47;1.38;;;36.00;99.90;;;;;;5055317;28;20177;-28
2022/08/12 11:37:18;;;;;;;5.50;2.03;;;36.10;99.90;;;;;;5054709;28;20069;-28
2022/08/12 11:39:43;;;;;;;3.75;1.30;;;36.10;99.90;;;;;;5051569;28;20045;-27
2022/08/12 11:42:09;;;;;;;5.35;1.77;;;36.20;99.90;;;;;;5036414;28;20048;-28
2022/08/12 11:44:35;;;;;;;5.82;1.30;;;36.30;99.90;;;;;;5055046;28;20098;-29
2022/08/12 11:47:01;;;;;;;3.25;1.38;;;36.50;99.90;;;;;;5054459;28;20097;-27
2022/08/12 11:49:27;;;;;;;3.00;1.50;;;36.80;99.90;;;;;;5068251;28;20497;-28
2022/08/12 11:51:52;;;;;;;2.92;1.60;;;36.80;99.90;;;;;;5071445;28;20049;-28
2022/08/12 11:54:18;;;;;;;5.78;1.38;;;37.00;99.90;;;;;;5052040;28;20045;-28
2022/08/12 11:56:44;;;;;;;2.10;1.23;;;37.00;99.90;;;;;;5034378;28;20076;-28
2022/08/12 11:59:10;;;;;;;3.95;1.52;;;36.90;99.90;;;;;;5053208;28;20072;-28
2022/08/12 12:01:35;;;;;;;3.65;1.45;;;37.00;99.90;;;;;;5055401;28;20048;-27
2022/08/12 12:04:01;;;;;;;6.30;1.63;;;37.10;99.90;;;;;;5054763;28;20438;-30
2022/08/12 12:06:27;;;;;;;4.93;1.40;;;37.00;99.90;;;;;;5050570;28;20130;-28
2022/08/12 12:08:53;;;;;;;2.50;1.40;;;37.10;99.90;;;;;;5054304;28;20132;-28
2022/08/12 12:11:20;;;;;;;3.55;1.35;;;37.10;99.90;;;;;;5053963;28;20044;-27
2022/08/12 12:13:46;;;;;;;3.03;1.73;;;37.00;99.90;;;;;;5052797;28;20062;-28
2022/08/12 12:16:12;;;;;;;4.50;1.50;;;37.00;99.90;;;;;;5051484;28;20043;-29
2022/08/12 12:18:38;;;;;;;8.45;1.40;;;36.80;99.90;;;;;;5053835;28;20143;-28
2022/08/12 12:21:06;;;;;;;3.60;1.15;;;36.80;99.90;;;;;;5054511;28;20045;-28
2022/08/12 12:23:34;;;;;;;5.57;1.38;;;36.70;99.90;;;;;;5053140;28;20037;-28
2022/08/12 12:26:04;;;;;;;2.45;1.30;;;36.70;99.90;;;;;;5054437;28;20077;-27
2022/08/12 12:28:30;;;;;;;3.83;1.00;;;36.70;99.90;;;;;;5051104;28;20056;-28
2022/08/12 12:30:55;;;;;;;2.25;1.38;;;36.50;99.90;;;;;;5053324;28;20044;-27
2022/08/12 12:33:21;;;;;;;2.75;1.10;;;36.10;99.90;;;;;;5054224;28;20048;-28
2022/08/12 12:35:47;;;;;;;4.32;1.15;;;36.10;99.90;;;;;;5054027;28;20160;-28
2022/08/12 12:38:14;;;;;;;5.28;1.20;;;35.80;99.90;;;;;;5051299;28;20501;-28
2022/08/12 12:40:43;;;;;;;3.08;1.00;;;35.90;99.90;;;;;;5054660;28;20163;-28
2022/08/12 12:43:09;;;;;;;1.73;1.15;;;36.10;99.90;;;;;;5053786;28;20554;-28
2022/08/12 12:45:37;;;;;;;4.32;1.42;;;36.10;99.90;;;;;;5054582;28;20037;-28
2022/08/12 12:48:16;;;;;;;4.30;1.10;;;36.20;99.90;;;;;;5052244;28;20086;-27
2022/08/12 12:50:47;;;;;;;3.53;1.42;;;36.10;99.90;;;;;;5034834;28;20053;-27
2022/08/12 12:53:19;;;;;;;4.07;1.42;;;36.00;99.90;;;;;;5040942;28;20418;-28
2022/08/12 12:55:46;;;;;;;6.25;1.50;;;35.90;99.90;;;;;;5052139;28;20112;-27
2022/08/12 12:58:16;;;;;;;4.20;1.50;;;35.90;99.90;;;;;;5051865;28;20103;-28
2022/08/12 13:00:46;;;;;;;6.97;1.30;;;36.00;99.90;;;;;;5051854;28;20048;-27
2022/08/12 13:03:12;;;;;;;4.28;1.40;;;35.80;99.90;;;;;;5052436;28;20132;-29
2022/08/12 13:05:41;;;;;;;7.05;1.58;;;35.50;99.90;;;;;;5052700;28;20116;-28
2022/08/12 13:08:27;;;;;;;6.50;1.80;;;35.60;99.90;;;;;;5051509;28;20044;-28
2022/08/12 13:10:54;;;;;;;6.43;1.40;;;35.40;99.90;;;;;;5052616;28;20045;-27
2022/08/12 13:13:21;;;;;;;4.80;1.67;;;35.40;99.90;;;;;;5052623;28;20052;-28
2022/08/12 13:15:48;;;;;;;6.00;1.60;;;35.50;99.90;;;;;;5052746;28;20045;-28
2022/08/12 13:18:17;;;;;;;5.90;1.52;;;35.50;99.90;;;;;;5046807;28;20110;-27
2022/08/12 13:20:46;;;;;;;2.30;1.40;;;35.20;99.90;;;;;;5048147;28;20053;-28
2022/08/12 13:23:15;;;;;;;4.05;1.50;;;35.00;99.90;;;;;;5052431;28;20049;-27
2022/08/12 13:25:41;;;;;;;3.47;1.50;;;34.70;99.90;;;;;;5052247;28;20560;-27
2022/08/12 13:28:08;;;;;;;4.47;1.67;;;34.40;99.90;;;;;;5053190;28;20451;-27
2022/08/12 13:30:37;;;;;;;5.00;1.40;;;34.40;99.90;;;;;;5051247;28;20044;-27
2022/08/12 13:33:04;;;;;;;3.40;1.35;;;34.60;99.90;;;;;;5050016;28;20079;-27
2022/08/12 13:35:34;;;;;;;3.10;1.58;;;34.50;99.90;;;;;;5042227;28;20830;-27
2022/08/12 13:38:00;;;;;;;3.63;1.50;;;34.70;99.90;;;;;;5043961;28;20533;-28
2022/08/12 13:40:30;;;;;;;5.13;1.55;;;34.70;99.90;;;;;;5049582;28;20406;-30
2022/08/12 13:42:56;;;;;;;6.03;2.03;;;34.40;99.90;;;;;;5051231;28;20092;-27
2022/08/12 13:45:25;;;;;;;3.42;1.50;;;34.30;99.90;;;;;;5053347;28;20103;-27
2022/08/12 13:47:56;;;;;;;11.73;1.85;;;34.00;99.90;;;;;;5053321;28;20132;-27
2022/08/12 13:50:35;;;;;;;6.67;1.60;;;33.90;99.90;;;;;;5048332;28;20048;-28
2022/08/12 13:53:12;;;;;;;5.75;1.40;;;33.80;99.90;;;;;;5052433;28;20299;-27
2022/08/12 13:55:44;;;;;;;4.80;1.73;;;33.70;99.90;;;;;;5019511;28;20391;-28
2022/08/12 13:58:19;;;;;;;9.38;1.90;;;33.70;99.90;;;;;;5053049;28;20049;-27
2022/08/12 14:00:50;;;;;;;4.47;1.60;;;33.70;99.90;;;;;;5052018;28;20051;-29
2022/08/12 14:03:20;;;;;;;3.78;1.55;;;33.60;99.90;;;;;;5051262;28;20041;-28
2022/08/12 14:05:47;;;;;;;4.40;1.30;;;33.70;99.90;;;;;;5053219;28;20067;-28
2022/08/12 14:08:14;;;;;;;2.45;1.13;;;33.70;99.90;;;;;;5052227;28;20068;-28
2022/08/12 14:10:50;;;;;;;4.00;2.80;;;33.90;99.90;;;;;;5029201;28;20048;-28
2022/08/12 14:13:28;;;;;;;4.35;1.60;;;34.00;99.90;;;;;;5051069;28;20085;-28
2022/08/12 14:15:59;;;;;;;3.63;1.33;;;34.10;99.90;;;;;;5049955;28;20045;-28
2022/08/12 14:18:27;;;;;;;2.88;1.52;;;34.20;99.90;;;;;;5048883;28;20516;-28
2022/08/12 14:21:03;;;;;;;5.90;1.30;;;34.30;99.90;;;;;;5043856;28;20100;-28
2022/08/12 14:23:33;;;;;;;10.98;2.13;;;34.30;99.90;;;;;;5051113;28;20041;-29
2022/08/12 14:26:06;;;;;;;3.38;1.30;;;34.20;99.90;;;;;;5050876;28;20434;-28
2022/08/12 14:28:34;;;;;;;4.68;1.30;;;34.20;99.90;;;;;;5051956;28;20049;-28
2022/08/12 14:31:03;;;;;;;9.68;3.85;;;34.10;99.90;;;;;;5051736;28;20395;-28
2022/08/12 14:33:33;;;;;;;3.92;2.22;;;34.20;99.90;;;;;;5056419;28;20131;-29
2022/08/12 14:36:01;;;;;;;5.95;2.03;;;34.30;99.90;;;;;;5054778;28;20040;-28
2022/08/12 14:38:39;;;;;;;10.13;2.00;;;34.30;99.90;;;;;;5055358;28;20124;-29